createdAt,value
2018-04-30T00:01:59.622Z,18.30
2018-04-30T00:04:25.581Z,18.30
2018-04-30T00:06:51.591Z,18.20
2018-04-30T00:09:17.579Z,18.20
2018-04-30T00:11:43.609Z,18.00
2018-04-30T00:14:09.605Z,18.00
2018-04-30T00:16:36.304Z,17.80
2018-04-30T00:19:02.253Z,17.90
2018-04-30T00:21:28.482Z,17.80
2018-04-30T00:23:54.442Z,17.80
2018-04-30T00:26:20.439Z,17.80
2018-04-30T00:28:46.602Z,17.90
2018-04-30T00:31:12.579Z,17.90
2018-04-30T00:33:39.301Z,17.90
2018-04-30T00:36:05.237Z,17.80
2018-04-30T00:38:31.195Z,17.80
2018-04-30T00:40:57.889Z,17.60
2018-04-30T00:43:23.915Z,17.50
2018-04-30T00:45:49.882Z,17.50
2018-04-30T00:48:15.838Z,17.40
2018-04-30T00:50:41.818Z,17.30
2018-04-30T00:53:07.796Z,17.20
2018-04-30T00:55:34.011Z,17.10
2018-04-30T00:58:00.078Z,16.80
2018-04-30T01:00:26.053Z,16.80
2018-04-30T01:02:52.802Z,16.60
2018-04-30T01:05:19.541Z,16.60
2018-04-30T01:07:45.490Z,16.60
2018-04-30T01:10:12.182Z,16.80
2018-04-30T01:12:39.055Z,16.80
2018-04-30T01:15:05.023Z,16.80
2018-04-30T01:17:32.454Z,16.90
2018-04-30T01:19:58.490Z,17.00
2018-04-30T01:22:24.455Z,17.00
2018-04-30T01:24:50.486Z,17.10
2018-04-30T01:27:17.499Z,17.10
2018-04-30T01:29:43.474Z,17.10
2018-04-30T01:32:09.440Z,17.10
2018-04-30T01:34:36.358Z,17.10
2018-04-30T01:37:02.316Z,17.20
2018-04-30T01:39:28.296Z,17.10
2018-04-30T01:41:54.283Z,17.00
2018-04-30T01:44:20.258Z,16.90
2018-04-30T01:46:46.230Z,16.90
2018-04-30T01:49:12.243Z,16.90
2018-04-30T01:51:38.213Z,16.90
2018-04-30T01:54:04.202Z,16.80
2018-04-30T01:56:30.204Z,16.70
2018-04-30T01:58:56.181Z,16.70
2018-04-30T02:01:22.378Z,16.70
2018-04-30T02:03:48.776Z,16.60
2018-04-30T02:06:14.748Z,16.60
2018-04-30T02:08:41.460Z,16.50
2018-04-30T02:11:07.835Z,16.50
2018-04-30T02:13:33.801Z,16.50
2018-04-30T02:16:00.512Z,16.40
2018-04-30T02:18:26.513Z,16.40
2018-04-30T02:20:52.530Z,16.40
2018-04-30T02:23:19.312Z,16.40
2018-04-30T02:25:45.294Z,16.40
2018-04-30T02:28:11.251Z,16.40
2018-04-30T02:30:37.980Z,16.40
2018-04-30T02:33:04.178Z,16.40
2018-04-30T02:35:30.135Z,16.40
2018-04-30T02:37:56.108Z,16.40
2018-04-30T02:40:22.864Z,16.40
2018-04-30T02:42:49.649Z,16.30
2018-04-30T02:45:15.611Z,16.30
2018-04-30T02:47:41.600Z,16.30
2018-04-30T02:50:08.308Z,16.20
2018-04-30T02:52:34.262Z,16.20
2018-04-30T02:55:00.421Z,16.20
2018-04-30T02:57:27.130Z,16.10
2018-04-30T02:59:53.128Z,16.10
2018-04-30T03:02:19.323Z,16.10
2018-04-30T03:04:45.295Z,16.10
2018-04-30T03:07:11.276Z,16.10
2018-04-30T03:09:37.305Z,16.00
2018-04-30T03:12:03.964Z,15.90
2018-04-30T03:14:29.927Z,15.90
2018-04-30T03:16:55.918Z,15.80
2018-04-30T03:19:21.992Z,15.60
2018-04-30T03:21:48.327Z,15.60
2018-04-30T03:24:14.314Z,15.60
2018-04-30T03:26:40.278Z,15.60
2018-04-30T03:29:06.308Z,15.60
2018-04-30T03:31:32.292Z,15.60
2018-04-30T03:33:58.995Z,15.50
2018-04-30T03:36:24.964Z,15.50
2018-04-30T03:38:53.157Z,15.40
2018-04-30T03:41:19.134Z,15.40
2018-04-30T03:43:45.128Z,15.40
2018-04-30T03:46:11.130Z,15.30
2018-04-30T03:48:37.092Z,15.20
2018-04-30T03:51:03.060Z,15.10
2018-04-30T03:53:29.785Z,15.10
2018-04-30T03:55:55.746Z,15.10
2018-04-30T03:58:22.488Z,15.10
2018-04-30T04:01:01.739Z,15.10
2018-04-30T04:03:40.922Z,15.00
2018-04-30T04:06:19.563Z,15.00
2018-04-30T04:08:45.458Z,15.00
2018-04-30T04:11:12.166Z,14.90
2018-04-30T04:13:38.158Z,14.90
2018-04-30T04:16:04.124Z,14.90
2018-04-30T04:18:30.388Z,15.00
2018-04-30T04:20:56.372Z,14.90
2018-04-30T04:23:22.353Z,15.00
2018-04-30T04:25:48.353Z,14.90
2018-04-30T04:28:14.598Z,14.90
2018-04-30T04:30:40.610Z,14.90
2018-04-30T04:33:06.567Z,14.90
2018-04-30T04:35:32.554Z,14.90
2018-04-30T04:37:58.520Z,14.90
2018-04-30T04:40:24.471Z,14.80
2018-04-30T04:42:50.894Z,14.80
2018-04-30T04:45:16.899Z,14.80
2018-04-30T04:47:42.879Z,14.90
2018-04-30T04:50:08.853Z,14.90
2018-04-30T04:52:34.806Z,14.90
2018-04-30T04:55:00.772Z,15.00
2018-04-30T04:57:27.492Z,15.00
2018-04-30T04:59:53.545Z,14.90
2018-04-30T05:02:20.332Z,14.90
2018-04-30T05:04:46.264Z,14.90
2018-04-30T05:07:12.236Z,14.90
2018-04-30T05:09:38.199Z,14.90
2018-04-30T05:12:04.192Z,14.80
2018-04-30T05:14:30.156Z,14.80
2018-04-30T05:16:56.135Z,14.80
2018-04-30T05:19:22.138Z,14.70
2018-04-30T05:21:48.849Z,14.60
2018-04-30T05:24:14.808Z,14.60
2018-04-30T05:26:40.770Z,14.50
2018-04-30T05:29:07.473Z,14.50
2018-04-30T05:31:33.443Z,14.40
2018-04-30T05:33:59.526Z,14.60
2018-04-30T05:36:25.413Z,14.50
2018-04-30T05:38:51.597Z,14.60
2018-04-30T05:41:17.632Z,14.70
2018-04-30T05:43:43.648Z,14.80
2018-04-30T05:46:10.354Z,15.00
2018-04-30T05:48:36.324Z,15.00
2018-04-30T05:51:02.290Z,15.10
2018-04-30T05:53:28.263Z,15.10
2018-04-30T05:55:54.232Z,15.00
2018-04-30T05:58:20.959Z,14.80
2018-04-30T06:00:46.924Z,14.80
2018-04-30T06:03:13.670Z,14.90
2018-04-30T06:05:40.380Z,15.10
2018-04-30T06:08:06.352Z,15.00
2018-04-30T06:10:32.337Z,15.10
2018-04-30T06:13:05.364Z,15.00
2018-04-30T06:15:31.391Z,14.90
2018-04-30T06:17:57.307Z,14.60
2018-04-30T06:20:24.080Z,14.40
2018-04-30T06:22:50.680Z,14.30
2018-04-30T06:25:17.431Z,14.10
2018-04-30T06:27:44.131Z,14.10
2018-04-30T06:30:10.296Z,14.10
2018-04-30T06:32:36.255Z,14.10
2018-04-30T06:35:02.959Z,14.20
2018-04-30T06:37:28.943Z,14.20
2018-04-30T06:39:55.822Z,14.30
2018-04-30T06:42:21.850Z,14.20
2018-04-30T06:44:47.838Z,14.30
2018-04-30T06:47:13.816Z,14.40
2018-04-30T06:49:40.524Z,14.50
2018-04-30T06:52:06.490Z,14.50
2018-04-30T06:54:33.204Z,14.50
2018-04-30T06:56:59.163Z,14.50
2018-04-30T06:59:25.157Z,14.60
2018-04-30T07:01:51.194Z,14.70
2018-04-30T07:04:17.164Z,14.90
2018-04-30T07:06:43.153Z,15.00
2018-04-30T07:09:09.163Z,15.20
2018-04-30T07:11:35.351Z,15.10
2018-04-30T07:14:01.315Z,15.00
2018-04-30T07:16:27.270Z,15.10
2018-04-30T07:18:53.995Z,15.10
2018-04-30T07:21:20.025Z,15.00
2018-04-30T07:23:45.991Z,15.00
2018-04-30T07:26:12.688Z,15.10
2018-04-30T07:28:38.652Z,15.10
2018-04-30T07:31:04.611Z,15.20
2018-04-30T07:33:30.605Z,15.20
2018-04-30T07:35:56.606Z,15.20
2018-04-30T07:38:22.609Z,15.10
2018-04-30T07:40:48.643Z,14.80
2018-04-30T07:43:14.731Z,14.80
2018-04-30T07:45:40.690Z,14.80
2018-04-30T07:48:06.653Z,14.70
2018-04-30T07:50:32.622Z,14.70
2018-04-30T07:52:58.575Z,14.60
2018-04-30T07:55:24.535Z,14.60
2018-04-30T07:57:50.657Z,14.70
2018-04-30T08:00:16.647Z,14.90
2018-04-30T08:02:43.517Z,16.10
2018-04-30T08:05:09.516Z,16.10
2018-04-30T08:07:35.469Z,16.50
2018-04-30T08:10:01.428Z,16.70
2018-04-30T08:12:27.430Z,16.50
2018-04-30T08:14:53.457Z,16.20
2018-04-30T08:17:19.418Z,16.00
2018-04-30T08:19:46.242Z,15.90
2018-04-30T08:22:12.220Z,15.90
2018-04-30T08:24:38.186Z,15.80
2018-04-30T08:27:04.208Z,15.80
2018-04-30T08:29:30.460Z,15.70
2018-04-30T08:31:56.427Z,15.90
2018-04-30T08:34:22.464Z,16.20
2018-04-30T08:36:48.786Z,16.40
2018-04-30T08:39:14.764Z,16.40
2018-04-30T08:41:41.495Z,16.80
2018-04-30T08:44:07.463Z,16.70
2018-04-30T08:46:34.176Z,19.60
2018-04-30T08:49:00.156Z,19.60
2018-04-30T08:51:26.862Z,23.30
2018-04-30T08:53:52.855Z,23.30
2018-04-30T08:56:18.908Z,25.00
2018-04-30T08:58:44.884Z,24.50
2018-04-30T09:01:11.684Z,22.80
2018-04-30T09:03:37.659Z,22.80
2018-04-30T09:06:03.628Z,21.70
2018-04-30T09:08:29.583Z,20.50
2018-04-30T09:10:56.330Z,18.60
2018-04-30T09:13:23.128Z,18.20
2018-04-30T09:15:49.251Z,18.10
2018-04-30T09:18:15.373Z,18.10
2018-04-30T09:20:41.382Z,18.10
2018-04-30T09:23:08.105Z,17.80
2018-04-30T09:25:34.443Z,17.90
2018-04-30T09:28:00.448Z,17.70
2018-04-30T09:30:26.441Z,17.70
2018-04-30T09:32:53.249Z,18.70
2018-04-30T09:35:19.227Z,18.70
2018-04-30T09:37:45.212Z,19.10
2018-04-30T09:40:11.509Z,19.30
2018-04-30T09:42:37.472Z,19.10
2018-04-30T09:45:03.568Z,18.90
2018-04-30T09:47:29.558Z,18.60
2018-04-30T09:49:55.554Z,18.20
2018-04-30T09:52:21.544Z,17.90
2018-04-30T09:54:47.549Z,17.80
2018-04-30T09:57:14.245Z,17.50
2018-04-30T09:59:40.404Z,17.50
2018-04-30T10:02:06.878Z,17.50
2018-04-30T10:04:33.613Z,17.60
2018-04-30T10:06:59.591Z,17.70
2018-04-30T10:09:25.603Z,17.70
2018-04-30T10:11:51.568Z,17.80
2018-04-30T10:14:17.591Z,17.70
2018-04-30T10:16:43.796Z,17.70
2018-04-30T10:19:09.853Z,17.60
2018-04-30T10:21:35.926Z,17.60
2018-04-30T10:24:01.960Z,17.60
2018-04-30T10:26:28.006Z,17.70
2018-04-30T10:28:54.289Z,17.90
2018-04-30T10:31:20.508Z,17.90
2018-04-30T10:33:46.492Z,17.80
2018-04-30T10:36:13.239Z,18.30
2018-04-30T10:38:40.008Z,18.90
2018-04-30T10:41:05.966Z,18.90
2018-04-30T10:43:32.133Z,18.90
2018-04-30T10:45:58.213Z,18.60
2018-04-30T10:48:24.213Z,18.00
2018-04-30T10:50:50.398Z,17.90
2018-04-30T10:53:16.882Z,17.80
2018-04-30T10:55:42.842Z,17.70
2018-04-30T10:58:08.820Z,17.70
2018-04-30T11:00:35.090Z,18.00
2018-04-30T11:03:01.058Z,18.30
2018-04-30T11:05:27.014Z,18.40
2018-04-30T11:07:53.466Z,18.50
2018-04-30T11:10:20.293Z,18.70
2018-04-30T11:12:46.251Z,18.60
2018-04-30T11:15:13.885Z,19.00
2018-04-30T11:17:39.863Z,18.90
2018-04-30T11:20:13.426Z,18.20
2018-04-30T11:22:39.409Z,18.20
2018-04-30T11:25:05.424Z,18.30
2018-04-30T11:27:32.213Z,18.80
2018-04-30T11:30:01.492Z,18.80
2018-04-30T11:32:27.487Z,19.10
2018-04-30T11:34:53.676Z,19.10
2018-04-30T11:37:20.455Z,18.70
2018-04-30T11:39:46.414Z,18.70
2018-04-30T11:42:12.545Z,18.80
2018-04-30T11:44:38.524Z,19.00
2018-04-30T11:47:04.533Z,19.10
2018-04-30T11:49:31.212Z,19.40
2018-04-30T11:51:57.196Z,19.40
2018-04-30T11:54:23.748Z,19.60
2018-04-30T11:56:49.828Z,20.00
2018-04-30T11:59:15.803Z,20.50
2018-04-30T12:01:41.780Z,20.40
2018-04-30T12:04:07.785Z,20.50
2018-04-30T12:06:33.776Z,20.30
2018-04-30T12:08:59.723Z,20.30
2018-04-30T12:11:25.786Z,20.40
2018-04-30T12:13:51.879Z,20.40
2018-04-30T12:16:18.294Z,20.30
2018-04-30T12:18:44.305Z,20.10
2018-04-30T12:21:11.022Z,20.20
2018-04-30T12:23:37.002Z,20.20
2018-04-30T12:26:03.050Z,20.20
2018-04-30T12:28:29.015Z,20.00
2018-04-30T12:30:55.071Z,20.10
2018-04-30T12:33:21.104Z,20.20
2018-04-30T12:35:47.179Z,20.20
2018-04-30T12:38:13.474Z,20.00
2018-04-30T12:40:40.852Z,19.20
2018-04-30T12:43:07.854Z,19.20
2018-04-30T12:45:34.174Z,19.20
2018-04-30T12:48:00.729Z,19.40
2018-04-30T12:50:26.740Z,19.00
2018-04-30T12:52:52.765Z,18.60
2018-04-30T12:55:18.784Z,18.60
2018-04-30T12:57:44.786Z,18.70
2018-04-30T13:00:10.760Z,18.90
2018-04-30T13:02:37.063Z,19.00
2018-04-30T13:05:02.982Z,19.30
2018-04-30T13:07:29.696Z,19.40
2018-04-30T13:09:55.855Z,19.40
2018-04-30T13:12:21.845Z,19.30
2018-04-30T13:14:47.823Z,19.30
2018-04-30T13:17:13.839Z,19.20
2018-04-30T13:19:39.810Z,19.10
2018-04-30T13:22:05.783Z,19.10
2018-04-30T13:24:32.044Z,19.10
2018-04-30T13:26:58.023Z,19.20
2018-04-30T13:29:24.019Z,19.40
2018-04-30T13:31:50.023Z,19.20
2018-04-30T13:34:15.999Z,19.00
2018-04-30T13:36:42.074Z,19.00
2018-04-30T13:39:08.823Z,19.10
2018-04-30T13:41:35.530Z,19.00
2018-04-30T13:44:01.495Z,19.00
2018-04-30T13:46:27.532Z,19.00
2018-04-30T13:48:53.524Z,19.20
2018-04-30T13:51:19.544Z,19.30
2018-04-30T13:53:45.549Z,19.40
2018-04-30T13:56:12.272Z,19.40
2018-04-30T13:58:38.264Z,19.40
2018-04-30T14:01:04.269Z,19.20
2018-04-30T14:03:30.237Z,18.80
2018-04-30T14:05:56.219Z,18.60
2018-04-30T14:08:22.276Z,18.20
2018-04-30T14:10:48.296Z,17.80
2018-04-30T14:13:14.284Z,17.90
2018-04-30T14:15:40.278Z,17.70
2018-04-30T14:18:06.300Z,17.40
2018-04-30T14:20:32.255Z,17.20
2018-04-30T14:22:58.254Z,17.20
2018-04-30T14:25:24.244Z,17.10
2018-04-30T14:27:50.983Z,17.10
2018-04-30T14:30:18.286Z,16.90
2018-04-30T14:32:44.812Z,16.80
2018-04-30T14:35:11.522Z,17.40
2018-04-30T14:37:37.679Z,17.40
2018-04-30T14:40:04.399Z,17.30
2018-04-30T14:42:30.434Z,17.40
2018-04-30T14:44:56.472Z,17.10
2018-04-30T14:47:22.472Z,17.00
2018-04-30T14:49:48.483Z,17.00
2018-04-30T14:52:15.243Z,17.00
2018-04-30T14:54:41.948Z,17.00
2018-04-30T14:57:07.916Z,17.00
2018-04-30T14:59:33.886Z,17.10
2018-04-30T15:02:00.604Z,17.20
2018-04-30T15:04:27.455Z,17.30
2018-04-30T15:06:53.370Z,17.30
2018-04-30T15:09:19.386Z,17.40
2018-04-30T15:11:45.343Z,17.40
2018-04-30T15:14:11.348Z,17.50
2018-04-30T15:16:37.336Z,17.50
2018-04-30T15:19:03.312Z,17.40
2018-04-30T15:21:30.039Z,17.20
2018-04-30T15:23:56.015Z,17.20
2018-04-30T15:26:21.986Z,17.10
2018-04-30T15:28:47.971Z,17.10
2018-04-30T15:31:13.935Z,17.10
2018-04-30T15:33:39.899Z,17.00
2018-04-30T15:36:05.899Z,16.80
2018-04-30T15:38:31.878Z,16.80
2018-04-30T15:40:57.852Z,16.80
2018-04-30T15:43:23.866Z,16.80
2018-04-30T15:45:49.890Z,16.80
2018-04-30T15:48:15.864Z,16.70
2018-04-30T15:50:42.059Z,16.70
2018-04-30T15:53:08.060Z,16.70
2018-04-30T15:55:34.019Z,16.80
2018-04-30T15:58:00.349Z,17.20
2018-04-30T16:00:26.235Z,17.60
2018-04-30T16:02:52.950Z,17.80
2018-04-30T16:05:18.976Z,17.80
2018-04-30T16:07:44.952Z,17.80
2018-04-30T16:10:10.927Z,17.80
2018-04-30T16:12:37.186Z,18.00
2018-04-30T16:15:03.714Z,18.10
2018-04-30T16:17:29.735Z,18.30
2018-04-30T16:19:56.471Z,18.00
2018-04-30T16:22:23.183Z,17.90
2018-04-30T16:24:49.210Z,17.90
2018-04-30T16:27:15.591Z,17.60
2018-04-30T16:29:41.550Z,17.40
2018-04-30T16:32:08.264Z,16.90
2018-04-30T16:34:34.293Z,16.90
2018-04-30T16:37:00.273Z,16.80
2018-04-30T16:39:27.005Z,16.60
2018-04-30T16:41:54.480Z,16.60
2018-04-30T16:44:20.506Z,16.60
2018-04-30T16:46:54.917Z,16.50
2018-04-30T16:49:20.906Z,16.50
2018-04-30T16:51:46.886Z,16.60
2018-04-30T16:54:12.928Z,16.60
2018-04-30T16:56:38.916Z,16.50
2018-04-30T16:59:05.766Z,16.20
2018-04-30T17:01:32.524Z,16.20
2018-04-30T17:03:59.230Z,16.10
2018-04-30T17:06:25.200Z,16.10
2018-04-30T17:08:51.980Z,15.90
2018-04-30T17:11:17.953Z,15.80
2018-04-30T17:13:44.693Z,15.70
2018-04-30T17:16:10.662Z,15.30
2018-04-30T17:18:37.363Z,15.50
2018-04-30T17:21:03.357Z,15.50
2018-04-30T17:23:30.128Z,15.40
2018-04-30T17:25:56.869Z,15.40
2018-04-30T17:28:22.855Z,15.30
2018-04-30T17:30:48.946Z,15.40
2018-04-30T17:33:14.944Z,15.40
2018-04-30T17:35:40.908Z,15.40
2018-04-30T17:38:06.929Z,15.40
2018-04-30T17:40:32.905Z,15.50
2018-04-30T17:42:59.628Z,15.20
2018-04-30T17:45:25.627Z,15.20
2018-04-30T17:47:51.641Z,15.00
2018-04-30T17:50:17.607Z,14.80
2018-04-30T17:52:43.629Z,14.70
2018-04-30T17:55:09.603Z,14.40
2018-04-30T17:57:35.572Z,14.30
2018-04-30T18:00:02.430Z,14.10
2018-04-30T18:02:28.323Z,14.10
2018-04-30T18:04:54.515Z,13.90
2018-04-30T18:07:20.566Z,13.70
2018-04-30T18:09:46.530Z,13.60
2018-04-30T18:12:12.502Z,13.40
2018-04-30T18:14:39.245Z,13.30
2018-04-30T18:17:05.954Z,13.20
2018-04-30T18:19:31.936Z,13.20
2018-04-30T18:21:58.662Z,13.10
2018-04-30T18:24:24.635Z,13.10
2018-04-30T18:26:51.472Z,13.10
2018-04-30T18:29:18.147Z,13.10
2018-04-30T18:31:44.126Z,13.00
2018-04-30T18:34:10.082Z,13.00
2018-04-30T18:36:36.085Z,12.90
2018-04-30T18:39:02.093Z,12.80
2018-04-30T18:41:28.066Z,12.80
2018-04-30T18:43:54.095Z,12.70
2018-04-30T18:46:20.110Z,12.70
2018-04-30T18:48:46.101Z,12.90
2018-04-30T18:51:13.596Z,13.20
2018-04-30T18:53:40.337Z,13.30
2018-04-30T18:56:07.054Z,13.30
2018-04-30T18:58:33.027Z,13.30
2018-04-30T19:00:59.735Z,13.40
2018-04-30T19:03:25.739Z,13.40
2018-04-30T19:05:52.150Z,13.30
2018-04-30T19:08:18.886Z,12.80
2018-04-30T19:10:44.879Z,12.80
2018-04-30T19:13:11.065Z,12.70
2018-04-30T19:15:37.041Z,12.50
2018-04-30T19:18:03.017Z,12.50
2018-04-30T19:20:29.020Z,12.40
2018-04-30T19:22:55.026Z,12.30
2018-04-30T19:25:21.799Z,12.10
2018-04-30T19:27:49.263Z,12.10
2018-04-30T19:30:15.975Z,11.90
2018-04-30T19:32:41.934Z,11.90
2018-04-30T19:35:08.088Z,11.90
2018-04-30T19:37:34.814Z,11.80
2018-04-30T19:40:00.832Z,11.80
2018-04-30T19:42:26.828Z,11.70
2018-04-30T19:44:53.569Z,11.80
2018-04-30T19:47:20.325Z,11.70
2018-04-30T19:49:47.087Z,11.70
2018-04-30T19:52:13.812Z,11.60
2018-04-30T19:54:39.787Z,11.60
2018-04-30T19:57:05.787Z,11.50
2018-04-30T19:59:31.756Z,11.50
2018-04-30T20:01:57.722Z,11.60
2018-04-30T20:04:23.904Z,11.60
2018-04-30T20:06:49.990Z,11.60
2018-04-30T20:09:15.984Z,11.50
2018-04-30T20:11:42.710Z,11.60
2018-04-30T20:14:08.675Z,11.60
2018-04-30T20:16:35.393Z,11.60
2018-04-30T20:19:01.370Z,11.60
2018-04-30T20:21:28.111Z,11.50
2018-04-30T20:23:54.177Z,11.50
2018-04-30T20:26:20.155Z,11.60
2018-04-30T20:28:46.130Z,11.50
2018-04-30T20:31:12.835Z,11.40
2018-04-30T20:33:38.874Z,11.30
2018-04-30T20:36:04.840Z,11.40
2018-04-30T20:38:30.818Z,11.40
2018-04-30T20:40:56.834Z,11.30
2018-04-30T20:43:23.602Z,11.40
2018-04-30T20:45:49.617Z,11.40
2018-04-30T20:48:16.379Z,11.40
2018-04-30T20:50:43.082Z,11.40
2018-04-30T20:53:09.067Z,11.30
2018-04-30T20:55:35.064Z,11.30
2018-04-30T20:58:01.483Z,11.30
2018-04-30T21:00:27.457Z,11.20
2018-04-30T21:02:53.497Z,11.10
2018-04-30T21:05:19.553Z,11.10
2018-04-30T21:07:46.258Z,11.00
2018-04-30T21:10:12.245Z,11.00
2018-04-30T21:12:45.958Z,11.00
2018-04-30T21:15:12.698Z,10.90
2018-04-30T21:17:38.735Z,10.90
2018-04-30T21:20:04.676Z,10.90
2018-04-30T21:22:31.404Z,11.20
2018-04-30T21:24:57.444Z,11.10
2018-04-30T21:27:24.925Z,11.40
2018-04-30T21:29:50.944Z,11.40
2018-04-30T21:32:16.926Z,11.60
2018-04-30T21:34:42.896Z,11.70
2018-04-30T21:37:08.885Z,11.80
2018-04-30T21:39:35.592Z,11.90
2018-04-30T21:42:01.587Z,11.90
2018-04-30T21:44:27.879Z,11.90
2018-04-30T21:46:53.881Z,12.00
2018-04-30T21:49:19.900Z,12.00
2018-04-30T21:51:45.907Z,12.10
2018-04-30T21:54:11.859Z,12.10
2018-04-30T21:56:38.560Z,12.00
2018-04-30T21:59:04.566Z,11.90
2018-04-30T22:01:30.525Z,11.90
2018-04-30T22:03:56.496Z,11.90
2018-04-30T22:06:22.574Z,11.90
2018-04-30T22:08:48.602Z,11.80
2018-04-30T22:11:14.563Z,11.80
2018-04-30T22:13:40.588Z,11.70
2018-04-30T22:16:06.554Z,11.60
2018-04-30T22:18:32.544Z,11.60
2018-04-30T22:20:58.553Z,11.50
2018-04-30T22:23:24.559Z,11.50
2018-04-30T22:25:50.550Z,11.30
2018-04-30T22:28:16.518Z,11.00
2018-04-30T22:30:42.478Z,10.80
2018-04-30T22:33:08.461Z,10.70
2018-04-30T22:35:34.474Z,10.50
2018-04-30T22:38:01.184Z,10.20
2018-04-30T22:40:27.138Z,10.20
2018-04-30T22:42:53.151Z,10.10
2018-04-30T22:45:19.160Z,10.00
2018-04-30T22:47:45.127Z,9.90
2018-04-30T22:50:11.270Z,9.90
2018-04-30T22:52:37.225Z,9.80
2018-04-30T22:55:03.270Z,9.70
2018-04-30T22:57:29.275Z,9.70
2018-04-30T22:59:55.240Z,9.60
2018-04-30T23:02:21.228Z,9.60
2018-04-30T23:04:47.222Z,9.50
2018-04-30T23:07:13.936Z,9.40
2018-04-30T23:09:39.898Z,9.40
2018-04-30T23:12:06.196Z,9.40
2018-04-30T23:14:32.170Z,9.30
2018-04-30T23:16:58.144Z,9.20
2018-04-30T23:19:24.147Z,9.20
2018-04-30T23:21:50.157Z,9.20
2018-04-30T23:24:16.199Z,9.10
2018-04-30T23:26:43.058Z,9.00
2018-04-30T23:29:10.502Z,9.00
2018-04-30T23:31:36.472Z,9.00
2018-04-30T23:34:02.480Z,9.10
2018-04-30T23:36:28.454Z,9.10
2018-04-30T23:38:55.157Z,9.50
2018-04-30T23:41:21.524Z,9.40
2018-04-30T23:43:47.486Z,9.60
2018-04-30T23:46:13.452Z,9.70
2018-04-30T23:48:39.420Z,9.60
2018-04-30T23:51:05.371Z,9.70
2018-04-30T23:53:31.334Z,9.70
2018-04-30T23:55:58.372Z,9.80
2018-04-30T23:58:25.833Z,9.90
